Arklow Spray — C6VK8 — position and weather

sailwx.info

Track history (hours):
 
Tides and Currents Weather Stations Pressure Air Temp Water Temp Dewpoint Dewpoint Depression Visibility Wind Speed Wind Dir Waves Ship Positions

Arklow Spray

Last reported at 2014-Jul-20 04:32 UTC. Time now 2014-Jul-24 10:45 UTC.
Position N 57°05' E 019°32'.

Length 90 m; draft 5 m.

Type: Cargo ship. MMSI: 309914000.

Date/timePositionNaut miles runAvg speedWind from/ knotsBaromVisibWave heightAir tempDewpointWater temp
2014-Jul-20 04:32N 57°05' E 019°32'1111.0
2014-Jul-20 03:33N 56°60' E 019°15'1110.7
2014-Jul-20 02:33N 56°55' E 018°57'1110.6
2014-Jul-20 01:34N 56°50' E 018°40'1110.3
2014-Jul-20 00:30N 56°44' E 018°23'1310.4
2014-Jul-19 23:16N 56°36' E 018°05'710.6
2014-Jul-19 22:33N 56°32' E 017°54'1010.5
2014-Jul-19 21:34N 56°25' E 017°39'1010.4
2014-Jul-19 20:34N 56°19' E 017°24'1110.7
2014-Jul-19 19:34N 56°12' E 017°09'1110.7
2014-Jul-19 18:33N 56°06' E 016°54'1110.7
2014-Jul-19 17:34N 55°60' E 016°38'1110.6
2014-Jul-19 16:33N 55°55' E 016°21'1110.5
2014-Jul-19 15:32N 55°50' E 016°05'1010.5
2014-Jul-19 14:34N 55°44' E 015°49'1010.3
2014-Jul-19 13:34N 55°39' E 015°34'1110.5
2014-Jul-19 12:34N 55°35' E 015°17'1110.6
2014-Jul-19 11:29N 55°29' E 014°59'1010.6
2014-Jul-19 10:33N 55°24' E 014°44'1010.5
2014-Jul-19 09:34N 55°17' E 014°30'10 9.6
2014-Jul-19 08:33N 55°10' E 014°19'10 9.9
2014-Jul-19 07:33N 55°11' E 014°01'1010.3
2014-Jul-19 06:34N 55°12' E 013°44'1110.5
2014-Jul-19 05:34N 55°13' E 013°25'1010.3
2014-Jul-19 04:33N 55°14' E 013°07'1010.3
2014-Jul-19 03:34N 55°15' E 012°49'8 8.4
2014-Jul-19 02:34N 55°20' E 012°38'1010.3
2014-Jul-19 01:34N 55°30' E 012°42'10 9.5
2014-Jul-19 00:34N 55°40' E 012°41'10 9.7
2014-Jul-18 23:34N 55°50' E 012°40'10 9.9
2014-Jul-18 22:34N 55°60' E 012°38'8 8.1
2014-Jul-18 21:34N 56°07' E 012°32'9 9.2
2014-Jul-18 20:33N 56°14' E 012°21'1010.4
2014-Jul-18 19:34N 56°22' E 012°10'1110.4
2014-Jul-18 18:33N 56°31' E 011°59'1010.3
2014-Jul-18 17:34N 56°41' E 011°53'1110.6
2014-Jul-18 16:32N 56°51' E 011°48'1010.4
2014-Jul-18 15:32N 57°01' E 011°41'1010.0
2014-Jul-18 14:33N 57°10' E 011°35'1010.4
2014-Jul-18 13:33N 57°20' E 011°28'1110.6
2014-Jul-18 12:33N 57°29' E 011°20'1110.7
2014-Jul-18 11:33N 57°36' E 011°05'1210.6
2014-Jul-18 10:24N 57°45' E 010°48'910.8
2014-Jul-18 09:33N 57°47' E 010°31'1111.2
2014-Jul-18 08:33N 57°46' E 010°10'122 9.1
2014-Jul-17 19:10N 58°02' E 006°23'6 9.6
2014-Jul-17 18:33N 58°07' E 006°19'1010.2
2014-Jul-17 17:34N 58°17' E 006°14'3 2.8
2014-Jul-17 16:32N 58°20' E 006°16'0 0.0
2014-Jul-17 15:32N 58°20' E 006°16'0 0.0
2014-Jul-17 14:32N 58°20' E 006°16'0 0.0
2014-Jul-17 13:32N 58°20' E 006°16'0 0.0
2014-Jul-17 12:32N 58°20' E 006°16'0 0.0
2014-Jul-17 11:32N 58°20' E 006°16'0 0.0
2014-Jul-17 10:32N 58°20' E 006°16'0 0.0
2014-Jul-17 09:32N 58°20' E 006°16'0 0.0
2014-Jul-17 08:32N 58°20' E 006°16'0 0.0
2014-Jul-17 07:32N 58°20' E 006°16'0 0.0
2014-Jul-17 06:32N 58°20' E 006°16'6 5.8
2014-Jul-17 05:33N 58°14' E 006°15'1110.7
2014-Jul-17 04:33N 58°03' E 006°18'  
2014-Jul-13 04:21N 56°00' E 008°07'0 0.0
2014-Jul-13 02:30N 56°00' E 008°07'0 0.0
2014-Jul-13 01:18N 56°00' E 008°07'0 0.0
2014-Jul-12 21:30N 56°00' E 008°07'0 0.0
2014-Jul-12 20:24N 56°00' E 008°07'0 0.0
2014-Jul-12 19:33N 56°00' E 008°07'0 0.0
2014-Jul-12 18:30N 56°00' E 008°07'0 0.0
2014-Jul-12 15:24N 56°00' E 008°07'0 0.0
2014-Jul-11 16:32N 56°00' E 008°07'0 0.0
2014-Jul-11 14:26N 56°00' E 008°07'17 3.2
2014-Jul-11 09:12N 55°49' E 007°44'710.1
2014-Jul-11 08:33N 55°44' E 007°36'10 9.8
2014-Jul-11 07:33N 55°37' E 007°25'10 9.7
2014-Jul-11 06:33N 55°27' E 007°24'10 9.9
2014-Jul-11 05:33N 55°17' E 007°26'1010.2
2014-Jul-11 04:32N 55°07' E 007°27'1010.6
2014-Jul-11 03:33N 54°57' E 007°29'1311.0
2014-Jul-11 02:21N 54°43' E 007°31'911.1
2014-Jul-11 01:33N 54°35' E 007°33'1111.0
2014-Jul-11 00:33N 54°24' E 007°34'1111.0
2014-Jul-10 23:33N 54°13' E 007°41'1111.2
2014-Jul-10 22:33N 54°06' E 007°55'1110.6
2014-Jul-10 21:33N 54°01' E 008°11'1010.0
2014-Jul-10 20:33N 53°59' E 008°28'8 8.0
2014-Jul-10 19:33N 53°56' E 008°40'8 8.4
2014-Jul-10 18:33N 53°51' E 008°52'1312.3
2014-Jul-10 17:33N 53°53' E 009°12'1212.1
2014-Jul-10 16:32N 53°44' E 009°26'1212.1
2014-Jul-10 15:33N 53°35' E 009°38'1111.2
2014-Jul-10 14:33N 53°31' E 009°56'0 0.4
2014-Jul-10 13:32N 53°31' E 009°57'0 0.0
2014-Jul-10 12:31N 53°31' E 009°57'0 0.0
2014-Jul-10 11:31N 53°31' E 009°57'0 0.0
2014-Jul-10 10:32N 53°31' E 009°57'0 0.0
2014-Jul-10 09:32N 53°31' E 009°57'0 0.0
2014-Jul-10 08:31N 53°31' E 009°57'0 0.0
2014-Jul-10 07:31N 53°31' E 009°57'0 0.0
2014-Jul-10 06:31N 53°31' E 009°57'0 0.0
2014-Jul-10 05:31N 53°31' E 009°57'0 0.0
2014-Jul-10 04:32N 53°31' E 009°57'  
Track history (hours):
 
Tides and Currents Weather Stations Pressure Air Temp Water Temp Dewpoint Dewpoint Depression Visibility Wind Speed Wind Dir Waves Ship Positions

Arklow Spray

Last reported at 2014-Jul-20 04:32 UTC. Time now 2014-Jul-24 10:45 UTC.
Position N 57°05' E 019°32'.

Length 90 m; draft 5 m.

Type: Cargo ship. MMSI: 309914000.

Date/timePositionNaut miles runAvg speedWind from/ knotsBaromVisibWave heightAir tempDewpointWater temp
2014-Jul-20 04:32N 57°05' E 019°32'1111.0
2014-Jul-20 03:33N 56°60' E 019°15'1110.7
2014-Jul-20 02:33N 56°55' E 018°57'1110.6
2014-Jul-20 01:34N 56°50' E 018°40'1110.3
2014-Jul-20 00:30N 56°44' E 018°23'1310.4
2014-Jul-19 23:16N 56°36' E 018°05'710.6
2014-Jul-19 22:33N 56°32' E 017°54'1010.5
2014-Jul-19 21:34N 56°25' E 017°39'1010.4
2014-Jul-19 20:34N 56°19' E 017°24'1110.7
2014-Jul-19 19:34N 56°12' E 017°09'1110.7
2014-Jul-19 18:33N 56°06' E 016°54'1110.7
2014-Jul-19 17:34N 55°60' E 016°38'1110.6
2014-Jul-19 16:33N 55°55' E 016°21'1110.5
2014-Jul-19 15:32N 55°50' E 016°05'1010.5
2014-Jul-19 14:34N 55°44' E 015°49'1010.3
2014-Jul-19 13:34N 55°39' E 015°34'1110.5
2014-Jul-19 12:34N 55°35' E 015°17'1110.6
2014-Jul-19 11:29N 55°29' E 014°59'1010.6
2014-Jul-19 10:33N 55°24' E 014°44'1010.5
2014-Jul-19 09:34N 55°17' E 014°30'10 9.6
2014-Jul-19 08:33N 55°10' E 014°19'10 9.9
2014-Jul-19 07:33N 55°11' E 014°01'1010.3
2014-Jul-19 06:34N 55°12' E 013°44'1110.5
2014-Jul-19 05:34N 55°13' E 013°25'1010.3
2014-Jul-19 04:33N 55°14' E 013°07'1010.3
2014-Jul-19 03:34N 55°15' E 012°49'8 8.4
2014-Jul-19 02:34N 55°20' E 012°38'1010.3
2014-Jul-19 01:34N 55°30' E 012°42'10 9.5
2014-Jul-19 00:34N 55°40' E 012°41'10 9.7
2014-Jul-18 23:34N 55°50' E 012°40'10 9.9
2014-Jul-18 22:34N 55°60' E 012°38'8 8.1
2014-Jul-18 21:34N 56°07' E 012°32'9 9.2
2014-Jul-18 20:33N 56°14' E 012°21'1010.4
2014-Jul-18 19:34N 56°22' E 012°10'1110.4
2014-Jul-18 18:33N 56°31' E 011°59'1010.3
2014-Jul-18 17:34N 56°41' E 011°53'1110.6
2014-Jul-18 16:32N 56°51' E 011°48'1010.4
2014-Jul-18 15:32N 57°01' E 011°41'1010.0
2014-Jul-18 14:33N 57°10' E 011°35'1010.4
2014-Jul-18 13:33N 57°20' E 011°28'1110.6
2014-Jul-18 12:33N 57°29' E 011°20'1110.7
2014-Jul-18 11:33N 57°36' E 011°05'1210.6
2014-Jul-18 10:24N 57°45' E 010°48'910.8
2014-Jul-18 09:33N 57°47' E 010°31'1111.2
2014-Jul-18 08:33N 57°46' E 010°10'122 9.1
2014-Jul-17 19:10N 58°02' E 006°23'6 9.6
2014-Jul-17 18:33N 58°07' E 006°19'1010.2
2014-Jul-17 17:34N 58°17' E 006°14'3 2.8
2014-Jul-17 16:32N 58°20' E 006°16'0 0.0
2014-Jul-17 15:32N 58°20' E 006°16'0 0.0
2014-Jul-17 14:32N 58°20' E 006°16'0 0.0
2014-Jul-17 13:32N 58°20' E 006°16'0 0.0
2014-Jul-17 12:32N 58°20' E 006°16'0 0.0
2014-Jul-17 11:32N 58°20' E 006°16'0 0.0
2014-Jul-17 10:32N 58°20' E 006°16'0 0.0
2014-Jul-17 09:32N 58°20' E 006°16'0 0.0
2014-Jul-17 08:32N 58°20' E 006°16'0 0.0
2014-Jul-17 07:32N 58°20' E 006°16'0 0.0
2014-Jul-17 06:32N 58°20' E 006°16'6 5.8
2014-Jul-17 05:33N 58°14' E 006°15'1110.7
2014-Jul-17 04:33N 58°03' E 006°18'  
2014-Jul-13 04:21N 56°00' E 008°07'0 0.0
2014-Jul-13 02:30N 56°00' E 008°07'0 0.0
2014-Jul-13 01:18N 56°00' E 008°07'0 0.0
2014-Jul-12 21:30N 56°00' E 008°07'0 0.0
2014-Jul-12 20:24N 56°00' E 008°07'0 0.0
2014-Jul-12 19:33N 56°00' E 008°07'0 0.0
2014-Jul-12 18:30N 56°00' E 008°07'0 0.0
2014-Jul-12 15:24N 56°00' E 008°07'0 0.0
2014-Jul-11 16:32N 56°00' E 008°07'0 0.0
2014-Jul-11 14:26N 56°00' E 008°07'17 3.2
2014-Jul-11 09:12N 55°49' E 007°44'710.1
2014-Jul-11 08:33N 55°44' E 007°36'10 9.8
2014-Jul-11 07:33N 55°37' E 007°25'10 9.7
2014-Jul-11 06:33N 55°27' E 007°24'10 9.9
2014-Jul-11 05:33N 55°17' E 007°26'1010.2
2014-Jul-11 04:32N 55°07' E 007°27'1010.6
2014-Jul-11 03:33N 54°57' E 007°29'1311.0
2014-Jul-11 02:21N 54°43' E 007°31'911.1
2014-Jul-11 01:33N 54°35' E 007°33'1111.0
2014-Jul-11 00:33N 54°24' E 007°34'1111.0
2014-Jul-10 23:33N 54°13' E 007°41'1111.2
2014-Jul-10 22:33N 54°06' E 007°55'1110.6
2014-Jul-10 21:33N 54°01' E 008°11'1010.0
2014-Jul-10 20:33N 53°59' E 008°28'8 8.0
2014-Jul-10 19:33N 53°56' E 008°40'8 8.4
2014-Jul-10 18:33N 53°51' E 008°52'1312.3
2014-Jul-10 17:33N 53°53' E 009°12'1212.1
2014-Jul-10 16:32N 53°44' E 009°26'1212.1
2014-Jul-10 15:33N 53°35' E 009°38'1111.2
2014-Jul-10 14:33N 53°31' E 009°56'0 0.4
2014-Jul-10 13:32N 53°31' E 009°57'0 0.0
2014-Jul-10 12:31N 53°31' E 009°57'0 0.0
2014-Jul-10 11:31N 53°31' E 009°57'0 0.0
2014-Jul-10 10:32N 53°31' E 009°57'0 0.0
2014-Jul-10 09:32N 53°31' E 009°57'0 0.0
2014-Jul-10 08:31N 53°31' E 009°57'0 0.0
2014-Jul-10 07:31N 53°31' E 009°57'0 0.0
2014-Jul-10 06:31N 53°31' E 009°57'0 0.0
2014-Jul-10 05:31N 53°31' E 009°57'0 0.0
2014-Jul-10 04:32N 53°31' E 009°57'  

Dump ship's entire track history